createdAt,value
2022-09-26T00:01:43.149Z,15.69
2022-09-26T00:05:45.169Z,15.65
2022-09-26T00:09:47.284Z,15.60
2022-09-26T00:13:53.356Z,15.58
2022-09-26T00:17:55.330Z,15.55
2022-09-26T00:21:57.676Z,15.50
2022-09-26T00:25:59.991Z,15.53
2022-09-26T00:30:01.977Z,15.57
2022-09-26T00:34:04.837Z,15.46
2022-09-26T00:38:07.541Z,15.41
2022-09-26T00:42:15.238Z,15.43
2022-09-26T00:46:38.375Z,15.54
2022-09-26T00:50:42.010Z,15.62
2022-09-26T00:54:49.000Z,15.56
2022-09-26T00:59:10.740Z,15.50
2022-09-26T01:03:14.639Z,15.56
2022-09-26T01:07:22.363Z,15.58
2022-09-26T01:11:24.431Z,15.50
2022-09-26T01:15:26.354Z,15.52
2022-09-26T01:19:50.464Z,15.51
2022-09-26T01:24:17.951Z,15.36
2022-09-26T01:28:42.675Z,15.31
2022-09-26T01:33:15.838Z,15.39
2022-09-26T01:37:37.315Z,15.44
2022-09-26T01:41:51.588Z,15.37
2022-09-26T01:46:03.525Z,15.35
2022-09-26T01:50:22.989Z,15.38
2022-09-26T01:54:36.359Z,15.40
2022-09-26T01:58:47.462Z,15.38
2022-09-26T02:02:50.878Z,15.29
2022-09-26T02:06:57.258Z,15.28
2022-09-26T02:11:10.861Z,15.13
2022-09-26T02:15:18.407Z,15.11
2022-09-26T02:19:25.897Z,15.15
2022-09-26T02:23:28.796Z,15.25
2022-09-26T02:27:31.088Z,15.34
2022-09-26T02:31:38.149Z,15.34
2022-09-26T02:35:55.294Z,15.32
2022-09-26T02:39:59.308Z,15.29
2022-09-26T02:44:04.942Z,15.26
2022-09-26T02:48:50.505Z,15.18
2022-09-26T02:53:21.031Z,15.04
2022-09-26T02:58:05.597Z,15.04
2022-09-26T03:02:17.657Z,15.03
2022-09-26T03:06:44.456Z,14.95
2022-09-26T03:10:48.523Z,14.83
2022-09-26T03:14:55.406Z,14.84
2022-09-26T03:19:16.873Z,14.83
2022-09-26T03:23:23.271Z,14.89
2022-09-26T03:27:25.832Z,14.92
2022-09-26T03:31:29.590Z,14.95
2022-09-26T03:35:36.271Z,14.95
2022-09-26T03:39:38.550Z,14.93
2022-09-26T03:44:04.600Z,14.92
2022-09-26T03:48:26.890Z,14.76
2022-09-26T03:52:29.604Z,14.82
2022-09-26T03:56:32.503Z,14.86
2022-09-26T04:00:34.972Z,14.89
2022-09-26T04:04:37.420Z,14.90
2022-09-26T04:08:41.870Z,14.88
2022-09-26T04:12:46.225Z,14.91
2022-09-26T04:16:49.491Z,14.99
2022-09-26T04:21:14.593Z,15.04
2022-09-26T04:25:17.037Z,15.06
2022-09-26T04:29:19.301Z,15.10
2022-09-26T04:33:32.222Z,15.17
2022-09-26T04:37:43.691Z,15.06
2022-09-26T04:41:46.020Z,15.01
2022-09-26T04:45:49.169Z,15.03
2022-09-26T04:49:54.432Z,15.11
2022-09-26T04:53:56.624Z,15.08
2022-09-26T04:58:02.393Z,15.16
2022-09-26T05:02:08.387Z,15.20
2022-09-26T05:06:17.781Z,15.22
2022-09-26T05:10:19.673Z,15.37
2022-09-26T05:19:21.420Z,15.45
2022-09-26T05:24:11.167Z,15.37
2022-09-26T05:28:13.927Z,15.33
2022-09-26T05:32:19.195Z,15.37
2022-09-26T05:36:21.353Z,15.44
2022-09-26T05:40:41.974Z,15.56
2022-09-26T05:44:44.316Z,15.71
2022-09-26T05:48:46.558Z,15.81
2022-09-26T05:53:00.780Z,15.91
2022-09-26T05:57:03.424Z,16.00
2022-09-26T06:01:19.127Z,15.92
2022-09-26T06:05:25.889Z,15.99
2022-09-26T06:09:46.197Z,16.08
2022-09-26T06:13:59.808Z,16.12
2022-09-26T06:18:04.540Z,16.04
2022-09-26T06:22:06.807Z,15.93
2022-09-26T06:26:25.470Z,16.11
2022-09-26T06:30:28.622Z,16.29
2022-09-26T06:34:41.815Z,16.29
2022-09-26T06:39:14.900Z,16.20
2022-09-26T06:43:17.218Z,16.32
2022-09-26T06:47:38.420Z,16.42
2022-09-26T06:52:03.323Z,16.50
2022-09-26T06:56:06.095Z,16.56
2022-09-26T07:00:14.726Z,16.38
2022-09-26T07:04:49.555Z,16.30
2022-09-26T07:09:03.015Z,16.38
2022-09-26T07:13:18.180Z,16.47
2022-09-26T07:17:21.384Z,16.31
2022-09-26T07:21:47.834Z,16.31
2022-09-26T07:26:03.029Z,16.44
2022-09-26T07:30:06.856Z,16.47
2022-09-26T07:34:18.489Z,16.44
2022-09-26T07:38:35.921Z,16.80
2022-09-26T07:43:19.508Z,16.86
2022-09-26T07:47:42.842Z,16.76
2022-09-26T07:52:04.883Z,16.87
2022-09-26T07:56:22.847Z,17.01
2022-09-26T08:01:03.571Z,17.41
2022-09-26T08:05:25.533Z,17.64
2022-09-26T08:09:28.607Z,17.73
2022-09-26T08:13:49.992Z,17.94
2022-09-26T08:18:11.842Z,17.86
2022-09-26T08:22:14.657Z,18.09
2022-09-26T08:26:24.077Z,18.32
2022-09-26T08:30:31.927Z,18.41
2022-09-26T08:34:38.129Z,18.57
2022-09-26T08:39:04.963Z,18.74
2022-09-26T08:44:35.151Z,19.18
2022-09-26T08:49:14.627Z,19.50
2022-09-26T08:53:35.379Z,19.64
2022-09-26T08:57:45.982Z,19.84
2022-09-26T09:01:51.936Z,20.06
2022-09-26T09:07:05.532Z,20.30
2022-09-26T09:11:57.526Z,20.61
2022-09-26T09:16:19.586Z,20.77
2022-09-26T09:20:49.639Z,21.13
2022-09-26T09:25:50.022Z,21.33
2022-09-26T09:30:56.830Z,21.44
2022-09-26T09:35:16.046Z,21.61
2022-09-26T09:40:35.815Z,21.48
2022-09-26T09:44:52.626Z,21.40
2022-09-26T09:49:21.881Z,21.50
2022-09-26T09:53:50.130Z,21.43
2022-09-26T09:58:12.346Z,21.50
2022-09-26T10:02:35.339Z,21.59
2022-09-26T10:06:46.016Z,21.53
2022-09-26T10:11:11.644Z,21.39
2022-09-26T10:15:32.479Z,21.55
2022-09-26T10:19:45.175Z,21.65
2022-09-26T10:23:50.651Z,21.40
2022-09-26T10:28:27.244Z,21.68
2022-09-26T10:32:30.308Z,21.77
2022-09-26T10:36:53.106Z,22.02
2022-09-26T10:41:01.400Z,22.15
2022-09-26T10:45:16.060Z,21.82
2022-09-26T10:50:00.783Z,22.21
2022-09-26T10:54:41.929Z,22.24
2022-09-26T10:58:46.749Z,22.11
2022-09-26T11:02:52.343Z,21.80
2022-09-26T11:06:54.930Z,21.96
2022-09-26T11:11:23.958Z,21.78
2022-09-26T11:15:40.041Z,22.15
2022-09-26T11:20:03.132Z,22.32
2022-09-26T11:24:29.227Z,22.59
2022-09-26T11:29:02.137Z,22.71
2022-09-26T11:33:15.890Z,22.84
2022-09-26T11:38:05.539Z,23.04
2022-09-26T11:42:26.643Z,22.62
2022-09-26T11:47:02.245Z,22.65
2022-09-26T11:51:34.776Z,22.97
2022-09-26T11:56:01.595Z,22.96
2022-09-26T12:00:15.819Z,23.37
2022-09-26T12:04:36.223Z,23.50
2022-09-26T12:08:47.658Z,23.61
2022-09-26T12:13:08.336Z,23.39
2022-09-26T12:17:47.865Z,23.46
2022-09-26T12:22:29.308Z,23.06
2022-09-26T12:26:49.303Z,23.78
2022-09-26T12:31:27.204Z,23.67
2022-09-26T12:35:32.791Z,24.13
2022-09-26T12:39:57.454Z,23.92
2022-09-26T12:44:08.367Z,24.05
2022-09-26T12:48:25.378Z,24.41
2022-09-26T12:52:58.045Z,24.24
2022-09-26T12:57:17.371Z,24.56
2022-09-26T13:01:32.575Z,24.13
2022-09-26T13:05:56.747Z,24.19
2022-09-26T13:10:07.715Z,24.01
2022-09-26T13:14:45.133Z,23.96
2022-09-26T13:18:54.441Z,24.04
2022-09-26T13:23:09.801Z,23.07
2022-09-26T13:27:21.175Z,22.88
2022-09-26T13:31:33.685Z,22.72
2022-09-26T13:35:39.674Z,22.13
2022-09-26T13:39:51.903Z,21.89
2022-09-26T13:44:33.112Z,21.64
2022-09-26T13:49:02.784Z,21.76
2022-09-26T13:53:34.721Z,21.43
2022-09-26T13:58:03.917Z,21.68
2022-09-26T14:02:29.599Z,21.40
2022-09-26T14:06:31.677Z,21.38
2022-09-26T14:10:39.617Z,21.42
2022-09-26T14:14:50.363Z,21.46
2022-09-26T14:19:11.153Z,21.39
2022-09-26T14:23:35.196Z,21.40
2022-09-26T14:27:37.378Z,21.35
2022-09-26T14:31:40.787Z,21.51
2022-09-26T14:35:43.717Z,21.53
2022-09-26T14:39:46.772Z,21.63
2022-09-26T14:43:51.035Z,21.50
2022-09-26T14:48:04.709Z,21.70
2022-09-26T14:52:19.822Z,21.64
2022-09-26T14:56:29.408Z,21.52
2022-09-26T15:00:36.007Z,21.72
2022-09-26T15:04:38.737Z,21.70
2022-09-26T15:08:41.157Z,21.74
2022-09-26T15:12:48.273Z,21.75
2022-09-26T15:16:53.814Z,22.04
2022-09-26T15:21:05.934Z,22.08
2022-09-26T15:25:21.692Z,22.18
2022-09-26T15:29:23.827Z,22.03
2022-09-26T15:33:26.425Z,21.80
2022-09-26T15:37:35.161Z,21.60
2022-09-26T15:42:03.218Z,21.59
2022-09-26T15:46:20.565Z,21.53
2022-09-26T15:50:36.431Z,21.53
2022-09-26T15:54:38.710Z,21.50
2022-09-26T15:59:02.570Z,21.41
2022-09-26T16:03:27.454Z,22.19
2022-09-26T16:07:32.704Z,22.81
2022-09-26T16:11:53.380Z,23.16
2022-09-26T16:16:08.755Z,22.60
2022-09-26T16:20:13.747Z,22.19
2022-09-26T16:24:30.225Z,21.87
2022-09-26T16:28:42.597Z,21.68
2022-09-26T16:32:44.830Z,22.23
2022-09-26T16:36:47.648Z,22.53
2022-09-26T16:41:04.147Z,22.18
2022-09-26T16:45:07.387Z,21.50
2022-09-26T16:49:29.775Z,20.88
2022-09-26T16:53:31.771Z,20.59
2022-09-26T16:57:37.308Z,20.52
2022-09-26T17:01:54.650Z,20.32
2022-09-26T17:05:59.001Z,20.07
2022-09-26T17:10:01.177Z,19.85
2022-09-26T17:14:03.312Z,19.66
2022-09-26T17:18:08.340Z,19.41
2022-09-26T17:22:14.733Z,19.14
2022-09-26T17:26:21.629Z,18.96
2022-09-26T17:30:23.878Z,18.81
2022-09-26T17:34:28.545Z,18.65
2022-09-26T17:38:30.675Z,18.50
2022-09-26T17:42:32.705Z,18.37
2022-09-26T17:46:38.283Z,18.22
2022-09-26T17:50:41.823Z,18.01
2022-09-26T17:54:44.321Z,17.50
2022-09-26T17:58:47.940Z,17.30
2022-09-26T18:02:55.429Z,17.31
2022-09-26T18:07:02.030Z,17.38
2022-09-26T18:11:08.156Z,16.95
2022-09-26T18:15:21.227Z,16.94
2022-09-26T18:19:23.256Z,16.97
2022-09-26T18:23:29.198Z,16.98
2022-09-26T18:27:36.886Z,16.72
2022-09-26T18:31:41.568Z,16.56
2022-09-26T18:35:45.568Z,16.63
2022-09-26T18:39:52.136Z,16.57
2022-09-26T18:44:00.192Z,16.61
2022-09-26T18:48:08.162Z,16.41
2022-09-26T18:52:15.119Z,16.39
2022-09-26T18:56:35.687Z,16.24
2022-09-26T19:00:37.653Z,16.18
2022-09-26T19:04:40.246Z,16.11
2022-09-26T19:08:50.965Z,16.26
2022-09-26T19:12:53.079Z,16.08
2022-09-26T19:16:56.088Z,16.08
2022-09-26T19:20:58.570Z,15.92
2022-09-26T19:25:01.693Z,15.85
2022-09-26T19:29:11.944Z,15.83
2022-09-26T19:33:14.307Z,15.81
2022-09-26T19:37:16.300Z,15.83
2022-09-26T19:41:18.342Z,15.79
2022-09-26T19:45:20.696Z,15.72
2022-09-26T19:49:24.532Z,15.59
2022-09-26T19:53:27.428Z,15.55
2022-09-26T19:57:29.447Z,15.54
2022-09-26T20:01:31.578Z,15.47
2022-09-26T20:05:34.457Z,15.49
2022-09-26T20:09:36.443Z,15.43
2022-09-26T20:13:57.072Z,15.38
2022-09-26T20:18:00.367Z,15.43
2022-09-26T20:22:04.513Z,15.48
2022-09-26T20:26:08.578Z,15.47
2022-09-26T20:30:34.160Z,15.40
2022-09-26T20:34:36.723Z,15.36
2022-09-26T20:38:46.019Z,15.34
2022-09-26T20:42:50.308Z,15.22
2022-09-26T20:46:53.969Z,15.21
2022-09-26T20:50:56.616Z,15.21
2022-09-26T20:54:58.661Z,15.13
2022-09-26T20:59:00.595Z,15.10
2022-09-26T21:03:02.523Z,14.95
2022-09-26T21:07:04.545Z,14.96
2022-09-26T21:11:09.833Z,14.97
2022-09-26T21:15:12.272Z,14.97
2022-09-26T21:19:24.599Z,15.01
2022-09-26T21:23:43.394Z,14.98
2022-09-26T21:27:56.121Z,14.91
2022-09-26T21:32:03.413Z,14.88
2022-09-26T21:36:05.552Z,14.91
2022-09-26T21:40:10.348Z,14.96
2022-09-26T21:44:23.644Z,14.85
2022-09-26T21:48:26.300Z,14.81
2022-09-26T21:52:41.787Z,14.91
2022-09-26T21:56:50.261Z,14.98
2022-09-26T22:00:52.202Z,14.98
2022-09-26T22:04:54.265Z,15.03
2022-09-26T22:08:56.577Z,15.11
2022-09-26T22:12:58.631Z,15.11
2022-09-26T22:17:00.882Z,15.21
2022-09-26T22:21:04.890Z,15.24
2022-09-26T22:25:07.223Z,15.34
2022-09-26T22:29:09.280Z,15.34
2022-09-26T22:33:11.410Z,15.52
2022-09-26T22:37:13.366Z,15.52
2022-09-26T22:41:15.308Z,15.58
2022-09-26T22:45:17.664Z,15.65
2022-09-26T22:49:19.667Z,15.72
2022-09-26T22:53:21.750Z,15.79
2022-09-26T22:57:23.743Z,15.86
2022-09-26T23:01:27.938Z,15.82
2022-09-26T23:05:29.989Z,15.91
2022-09-26T23:09:32.732Z,15.87
2022-09-26T23:13:35.671Z,15.88
2022-09-26T23:17:37.878Z,15.95
2022-09-26T23:21:39.916Z,15.85
2022-09-26T23:25:46.988Z,15.94
2022-09-26T23:29:49.036Z,16.02
2022-09-26T23:33:52.275Z,16.11
2022-09-26T23:37:56.384Z,16.15
2022-09-26T23:41:58.871Z,16.11
2022-09-26T23:46:00.886Z,16.03
2022-09-26T23:50:03.930Z,15.84
2022-09-26T23:54:06.229Z,15.82
2022-09-26T23:58:08.819Z,15.95
